首页
METAR-TAF:

METAR-TAF

机场 :

伊爾庫茨克國際機場

伊爾庫茨克, 俄罗斯

纬度: 52-16N, 经度: 104-19E, 海拔: 513米

当前天气观测

该预报发布于26分钟前的07:30 UTC
风速12节,风向西转西北
温度 12°C
湿度 40%
气压 1002 hPa
能见度10公里或以上
散云层高于4800英尺, 积雨云.

METAR: UIII 220730Z 30006MPS 9999 SCT048CB 12/M01 Q1002 R30/60D NOSIG RMK QFE707/0943

时间: 15:56 (07:56 UTC)

预报

该预报发布于2小时和56分钟前的05:00 UTC
预报有效从22日的 06点(UTC)到 23日的 06点(UTC)
风速14节,风向西
能见度10公里或以上
散云层高于2000英尺, 积雨云.

TAF: UIII 220500Z 2206/2306 26007MPS 9999 SCT020CB

超过4000个机场的气象观测和天气预报(METAR&TAF报告)。

可查询的气象台以黄色和红色小点在地图上表示。

将鼠标移到小点上方,可查看气象台名称。

然后点击查看天气观测和预报。

如需切换地图:点击带黑十字的绿色按钮放大地图;点击带横线的绿色按钮缩小地图;或者点击绿色箭头查看邻近地区的地图。


METAR-TAF: